createdAt,value
2017-12-21T00:02:26.341Z,102802.87
2017-12-21T00:04:54.015Z,102798.95
2017-12-21T00:07:21.682Z,102790.64
2017-12-21T00:09:49.327Z,102787.45
2017-12-21T00:12:17.113Z,102791.06
2017-12-21T00:14:44.747Z,102798.41
2017-12-21T00:17:12.436Z,102794.96
2017-12-21T00:19:40.077Z,102792.19
2017-12-21T00:22:07.708Z,102797.34
2017-12-21T00:24:35.417Z,102790.10
2017-12-21T00:27:03.097Z,102802.56
2017-12-21T00:29:30.789Z,102796.60
2017-12-21T00:31:58.430Z,102798.41
2017-12-21T00:34:26.134Z,102796.66
2017-12-21T00:36:53.834Z,102795.11
2017-12-21T00:39:21.507Z,102800.50
2017-12-21T00:41:49.147Z,102797.73
2017-12-21T00:44:16.840Z,102778.48
2017-12-21T00:46:44.717Z,102782.69
2017-12-21T00:49:12.406Z,102784.78
2017-12-21T00:51:40.032Z,102783.40
2017-12-21T00:54:07.726Z,102778.54
2017-12-21T00:56:35.414Z,102779.61
2017-12-21T00:59:03.117Z,102786.42
2017-12-21T01:01:30.798Z,102771.41
2017-12-21T01:03:58.473Z,102773.37
2017-12-21T01:06:26.603Z,102767.88
2017-12-21T01:08:54.352Z,102769.69
2017-12-21T01:11:22.003Z,102765.17
2017-12-21T01:13:49.743Z,102760.86
2017-12-21T01:16:17.385Z,102756.43
2017-12-21T01:18:45.131Z,102759.25
2017-12-21T01:21:12.824Z,102756.91
2017-12-21T01:23:40.575Z,102756.77
2017-12-21T01:26:08.589Z,102762.45
2017-12-21T01:28:36.342Z,102759.84
2017-12-21T01:31:04.037Z,102758.09
2017-12-21T01:33:31.703Z,102751.11
2017-12-21T01:35:59.398Z,102740.19
2017-12-21T01:38:27.140Z,102736.34
2017-12-21T01:40:54.828Z,102732.47
2017-12-21T01:43:22.558Z,102733.20
2017-12-21T01:45:50.257Z,102738.37
2017-12-21T01:48:17.998Z,102742.16
2017-12-21T01:50:45.632Z,102742.22
2017-12-21T01:53:13.368Z,102743.91
2017-12-21T01:55:41.069Z,102748.49
2017-12-21T01:58:08.819Z,102750.11
2017-12-21T02:00:36.864Z,102748.61
2017-12-21T02:03:04.579Z,102743.91
2017-12-21T02:05:32.246Z,102741.26
2017-12-21T02:07:59.964Z,102740.88
2017-12-21T02:10:27.658Z,102734.10
2017-12-21T02:12:55.296Z,102735.34
2017-12-21T02:15:23.035Z,102731.75
2017-12-21T02:17:50.740Z,102731.07
2017-12-21T02:20:18.418Z,102727.08
2017-12-21T02:22:46.174Z,102726.05
2017-12-21T02:25:13.985Z,102723.02
2017-12-21T02:27:41.680Z,102735.06
2017-12-21T02:30:09.457Z,102726.95
2017-12-21T02:32:37.162Z,102726.69
2017-12-21T02:35:04.863Z,102729.62
2017-12-21T02:37:32.512Z,102726.04
2017-12-21T02:40:00.253Z,102727.05
2017-12-21T02:42:27.952Z,102732.98
2017-12-21T02:44:55.638Z,102732.44
2017-12-21T02:47:23.344Z,102735.75
2017-12-21T02:49:51.031Z,102739.14
2017-12-21T02:52:18.731Z,102729.56
2017-12-21T02:54:46.489Z,102733.03
2017-12-21T02:57:14.242Z,102726.95
2017-12-21T02:59:42.060Z,102719.06
2017-12-21T03:02:09.795Z,102720.02
2017-12-21T03:04:37.557Z,102726.95
2017-12-21T03:07:05.204Z,102721.59
2017-12-21T03:09:32.981Z,102720.06
2017-12-21T03:12:00.702Z,102722.84
2017-12-21T03:14:28.382Z,102723.38
2017-12-21T03:16:56.096Z,102722.14
2017-12-21T03:19:23.874Z,102719.64
2017-12-21T03:21:51.592Z,102719.80
2017-12-21T03:24:19.328Z,102721.03
2017-12-21T03:26:47.021Z,102720.91
2017-12-21T03:29:14.747Z,102717.77
2017-12-21T03:31:42.752Z,102720.66
2017-12-21T03:34:10.495Z,102719.41
2017-12-21T03:36:38.194Z,102712.77
2017-12-21T03:39:05.977Z,102720.96
2017-12-21T03:41:33.667Z,102717.66
2017-12-21T03:44:01.376Z,102719.31
2017-12-21T03:46:29.123Z,102708.70
2017-12-21T03:48:57.164Z,102710.93
2017-12-21T03:51:24.902Z,102707.78
2017-12-21T03:53:52.545Z,102708.91
2017-12-21T03:56:20.346Z,102710.60
2017-12-21T03:58:48.185Z,102715.84
2017-12-21T04:01:15.979Z,102712.30
2017-12-21T04:03:44.075Z,102712.30
2017-12-21T04:06:11.737Z,102702.17
2017-12-21T04:08:39.712Z,102706.91
2017-12-21T04:11:07.476Z,102695.94
2017-12-21T04:13:35.169Z,102696.90
2017-12-21T04:16:02.828Z,102694.44
2017-12-21T04:18:30.533Z,102693.70
2017-12-21T04:20:58.215Z,102700.68
2017-12-21T04:23:25.916Z,102700.56
2017-12-21T04:25:53.645Z,102699.60
2017-12-21T04:28:21.328Z,102699.34
2017-12-21T04:30:49.001Z,102703.97
2017-12-21T04:33:16.656Z,102698.56
2017-12-21T04:35:44.399Z,102695.11
2017-12-21T04:38:12.093Z,102688.06
2017-12-21T04:40:39.817Z,102685.98
2017-12-21T04:43:07.509Z,102674.78
2017-12-21T04:45:35.241Z,102671.75
2017-12-21T04:48:02.957Z,102661.23
2017-12-21T04:50:30.628Z,102654.88
2017-12-21T04:52:58.249Z,102669.39
2017-12-21T04:55:25.925Z,102660.37
2017-12-21T04:57:53.635Z,102657.08
2017-12-21T05:00:21.441Z,102665.70
2017-12-21T05:02:49.148Z,102663.89
2017-12-21T05:05:16.826Z,102664.05
2017-12-21T05:07:44.453Z,102661.97
2017-12-21T05:10:12.210Z,102660.27
2017-12-21T05:12:39.926Z,102658.66
2017-12-21T05:15:07.603Z,102654.77
2017-12-21T05:17:35.320Z,102652.95
2017-12-21T05:20:03.007Z,102648.14
2017-12-21T05:22:30.689Z,102654.11
2017-12-21T05:24:58.414Z,102654.95
2017-12-21T05:27:26.177Z,102665.78
2017-12-21T05:29:53.918Z,102659.02
2017-12-21T05:32:21.655Z,102659.59
2017-12-21T05:34:49.314Z,102662.25
2017-12-21T05:37:16.977Z,102661.87
2017-12-21T05:39:44.633Z,102656.32
2017-12-21T05:42:12.398Z,102669.22
2017-12-21T05:44:40.054Z,102672.62
2017-12-21T05:47:07.825Z,102673.35
2017-12-21T05:49:35.532Z,102673.89
2017-12-21T05:52:03.215Z,102673.51
2017-12-21T05:54:30.952Z,102673.39
2017-12-21T05:56:58.697Z,102671.70
2017-12-21T05:59:26.501Z,102672.00
2017-12-21T06:01:54.171Z,102677.28
2017-12-21T06:04:21.845Z,102682.13
2017-12-21T06:06:49.516Z,102683.22
2017-12-21T06:09:17.185Z,102689.34
2017-12-21T06:11:44.875Z,102691.03
2017-12-21T06:14:12.549Z,102685.69
2017-12-21T06:16:40.258Z,102694.59
2017-12-21T06:19:07.960Z,102692.51
2017-12-21T06:21:35.654Z,102698.59
2017-12-21T06:24:03.313Z,102699.56
2017-12-21T06:26:30.993Z,102712.30
2017-12-21T06:28:58.655Z,102710.08
2017-12-21T06:31:26.405Z,102720.29
2017-12-21T06:33:54.167Z,102711.86
2017-12-21T06:36:21.929Z,102711.74
2017-12-21T06:38:49.663Z,102719.06
2017-12-21T06:41:17.335Z,102720.48
2017-12-21T06:43:45.117Z,102717.15
2017-12-21T06:46:12.805Z,102719.15
2017-12-21T06:48:40.557Z,102720.81
2017-12-21T06:51:08.241Z,102721.11
2017-12-21T06:53:36.015Z,102726.24
2017-12-21T06:56:03.763Z,102722.08
2017-12-21T06:58:31.499Z,102723.20
2017-12-21T07:00:59.281Z,102724.05
2017-12-21T07:03:27.030Z,102715.98
2017-12-21T07:05:54.765Z,102719.73
2017-12-21T07:08:22.535Z,102720.55
2017-12-21T07:10:50.264Z,102724.00
2017-12-21T07:13:18.066Z,102716.33
2017-12-21T07:15:45.849Z,102717.77
2017-12-21T07:18:13.608Z,102722.23
2017-12-21T07:20:41.344Z,102724.74
2017-12-21T07:23:09.048Z,102722.23
2017-12-21T07:25:36.761Z,102721.77
2017-12-21T07:28:04.449Z,102719.34
2017-12-21T07:30:32.114Z,102724.05
2017-12-21T07:32:59.858Z,102724.81
2017-12-21T07:35:27.622Z,102727.36
2017-12-21T07:37:55.369Z,102727.33
2017-12-21T07:40:23.120Z,102725.36
2017-12-21T07:42:50.805Z,102732.98
2017-12-21T07:45:18.424Z,102727.09
2017-12-21T07:47:46.168Z,102736.53
2017-12-21T07:50:13.845Z,102733.86
2017-12-21T07:52:41.592Z,102741.72
2017-12-21T07:55:09.222Z,102746.42
2017-12-21T07:57:36.896Z,102741.61
2017-12-21T08:00:04.538Z,102735.33
2017-12-21T08:02:32.212Z,102736.55
2017-12-21T08:04:59.952Z,102727.38
2017-12-21T08:07:27.625Z,102736.78
2017-12-21T08:09:55.302Z,102736.83
2017-12-21T08:12:22.978Z,102734.94
2017-12-21T08:14:50.602Z,102739.95
2017-12-21T08:17:18.280Z,102731.89
2017-12-21T08:19:45.911Z,102734.25
2017-12-21T08:22:13.652Z,102738.95
2017-12-21T08:24:41.365Z,102735.75
2017-12-21T08:27:09.074Z,102751.97
2017-12-21T08:29:36.766Z,102753.20
2017-12-21T08:32:04.453Z,102759.45
2017-12-21T08:34:32.142Z,102770.59
2017-12-21T08:36:59.841Z,102771.44
2017-12-21T08:39:27.487Z,102777.95
2017-12-21T08:41:55.183Z,102782.11
2017-12-21T08:44:23.082Z,102772.98
2017-12-21T08:46:50.730Z,102773.55
2017-12-21T08:49:18.410Z,102772.98
2017-12-21T08:51:46.046Z,102780.88
2017-12-21T08:54:13.795Z,102777.14
2017-12-21T08:56:41.550Z,102781.19
2017-12-21T08:59:09.211Z,102779.54
2017-12-21T09:01:36.872Z,102787.86
2017-12-21T09:04:04.597Z,102796.56
2017-12-21T09:06:32.266Z,102807.39
2017-12-21T09:09:00.036Z,102812.52
2017-12-21T09:11:28.061Z,102819.34
2017-12-21T09:13:55.885Z,102813.36
2017-12-21T09:16:23.666Z,102810.75
2017-12-21T09:18:51.430Z,102807.81
2017-12-21T09:21:19.103Z,102802.55
2017-12-21T09:23:46.880Z,102798.48
2017-12-21T09:26:14.606Z,102802.55
2017-12-21T09:28:42.371Z,102797.55
2017-12-21T09:31:10.060Z,102789.72
2017-12-21T09:33:37.735Z,102794.01
2017-12-21T09:36:05.428Z,102794.99
2017-12-21T09:38:33.123Z,102784.34
2017-12-21T09:41:00.817Z,102782.37
2017-12-21T09:43:28.558Z,102785.15
2017-12-21T09:45:56.265Z,102788.11
2017-12-21T09:48:23.938Z,102781.30
2017-12-21T09:50:51.660Z,102783.43
2017-12-21T09:53:19.415Z,102791.14
2017-12-21T09:55:47.112Z,102785.10
2017-12-21T09:58:14.784Z,102790.65
2017-12-21T10:00:42.944Z,102783.52
2017-12-21T10:03:10.718Z,102767.80
2017-12-21T10:05:38.430Z,102763.64
2017-12-21T10:08:06.182Z,102762.18
2017-12-21T10:10:33.895Z,102759.63
2017-12-21T10:13:01.658Z,102762.59
2017-12-21T10:15:29.364Z,102769.13
2017-12-21T10:17:57.102Z,102770.61
2017-12-21T10:20:24.833Z,102777.06
2017-12-21T10:22:52.518Z,102782.67
2017-12-21T10:25:20.290Z,102779.48
2017-12-21T10:27:48.006Z,102780.75
2017-12-21T10:30:15.764Z,102773.52
2017-12-21T10:32:43.504Z,102778.14
2017-12-21T10:35:11.269Z,102783.18
2017-12-21T10:37:39.018Z,102781.25
2017-12-21T10:40:06.832Z,102783.67
2017-12-21T10:42:34.531Z,102787.50
2017-12-21T10:45:02.220Z,102784.12
2017-12-21T10:47:29.970Z,102783.05
2017-12-21T10:49:57.696Z,102783.00
2017-12-21T10:52:25.564Z,102800.12
2017-12-21T10:54:53.306Z,102801.62
2017-12-21T10:57:20.937Z,102807.48
2017-12-21T10:59:48.616Z,102802.79
2017-12-21T11:02:16.262Z,102802.89
2017-12-21T11:04:43.945Z,102795.09
2017-12-21T11:07:11.555Z,102797.88
2017-12-21T11:09:39.236Z,102798.02
2017-12-21T11:12:06.863Z,102797.61
2017-12-21T11:14:34.545Z,102804.89
2017-12-21T11:17:02.212Z,102818.45
2017-12-21T11:19:29.912Z,102808.98
2017-12-21T11:21:57.552Z,102814.49
2017-12-21T11:24:25.222Z,102820.27
2017-12-21T11:26:52.883Z,102829.27
2017-12-21T11:29:20.561Z,102848.84
2017-12-21T11:31:48.262Z,102844.16
2017-12-21T11:34:15.969Z,102849.30
2017-12-21T11:36:43.607Z,102843.66
2017-12-21T11:39:11.312Z,102834.55
2017-12-21T11:41:38.946Z,102827.73
2017-12-21T11:44:06.625Z,102816.85
2017-12-21T11:46:34.270Z,102823.19
2017-12-21T11:49:01.957Z,102834.66
2017-12-21T11:51:29.624Z,102841.79
2017-12-21T11:53:57.409Z,102831.25
2017-12-21T11:56:25.041Z,102834.70
2017-12-21T11:58:52.806Z,102822.13
2017-12-21T12:01:20.441Z,102826.49
2017-12-21T12:03:48.101Z,102818.50
2017-12-21T12:06:15.936Z,102811.52
2017-12-21T12:08:43.632Z,102798.58
2017-12-21T12:11:11.387Z,102810.61
2017-12-21T12:13:39.088Z,102796.30
2017-12-21T12:16:06.832Z,102802.85
2017-12-21T12:18:34.521Z,102803.06
2017-12-21T12:21:02.264Z,102803.85
2017-12-21T12:23:29.907Z,102802.53
2017-12-21T12:25:57.591Z,102806.68
2017-12-21T12:28:25.279Z,102805.13
2017-12-21T12:30:53.032Z,102804.27
2017-12-21T12:33:20.749Z,102804.20
2017-12-21T12:35:48.524Z,102806.92
2017-12-21T12:38:16.208Z,102810.23
2017-12-21T12:40:43.980Z,102814.80
2017-12-21T12:43:11.611Z,102810.23
2017-12-21T12:45:39.416Z,102808.36
2017-12-21T12:48:07.198Z,102827.52
2017-12-21T12:50:34.917Z,102832.58
2017-12-21T12:53:02.604Z,102822.04
2017-12-21T12:55:30.288Z,102814.21
2017-12-21T12:57:57.972Z,102806.41
2017-12-21T13:00:25.677Z,102800.94
2017-12-21T13:02:53.443Z,102821.98
2017-12-21T13:05:21.128Z,102809.01
2017-12-21T13:07:48.902Z,102805.84
2017-12-21T13:10:16.660Z,102813.16
2017-12-21T13:12:44.342Z,102796.32
2017-12-21T13:15:12.125Z,102803.98
2017-12-21T13:17:39.856Z,102805.37
2017-12-21T13:20:07.652Z,102806.38
2017-12-21T13:22:35.394Z,102804.69
2017-12-21T13:25:03.147Z,102795.64
2017-12-21T13:27:30.942Z,102797.73
2017-12-21T13:29:58.710Z,102807.14
2017-12-21T13:32:26.437Z,102814.61
2017-12-21T13:34:54.139Z,102826.05
2017-12-21T13:37:21.888Z,102828.51
2017-12-21T13:39:49.645Z,102828.23
2017-12-21T13:42:17.389Z,102827.63
2017-12-21T13:44:45.112Z,102826.62
2017-12-21T13:47:12.774Z,102834.61
2017-12-21T13:49:40.468Z,102823.42
2017-12-21T13:52:08.203Z,102810.37
2017-12-21T13:54:36.129Z,102796.36
2017-12-21T13:57:03.870Z,102810.03
2017-12-21T13:59:31.594Z,102806.23
2017-12-21T14:01:59.418Z,102823.50
2017-12-21T14:04:27.167Z,102834.58
2017-12-21T14:06:54.903Z,102830.42
2017-12-21T14:09:22.706Z,102834.47
2017-12-21T14:11:50.478Z,102838.84
2017-12-21T14:14:18.226Z,102845.76
2017-12-21T14:16:45.897Z,102838.55
2017-12-21T14:19:13.582Z,102846.86
2017-12-21T14:21:41.333Z,102838.50
2017-12-21T14:24:09.010Z,102850.05
2017-12-21T14:26:36.759Z,102840.30
2017-12-21T14:29:04.453Z,102832.96
2017-12-21T14:31:32.144Z,102852.45
2017-12-21T14:33:59.944Z,102861.86
2017-12-21T14:36:27.642Z,102850.47
2017-12-21T14:38:55.392Z,102850.58
2017-12-21T14:41:23.136Z,102849.92
2017-12-21T14:43:50.845Z,102852.69
2017-12-21T14:46:18.586Z,102849.33
2017-12-21T14:48:46.278Z,102848.05
2017-12-21T14:51:14.003Z,102853.95
2017-12-21T14:53:41.730Z,102858.47
2017-12-21T14:56:09.458Z,102862.62
2017-12-21T14:58:37.145Z,102857.87
2017-12-21T15:01:04.922Z,102847.41
2017-12-21T15:03:32.610Z,102853.41
2017-12-21T15:06:00.360Z,102857.78
2017-12-21T15:08:28.058Z,102864.42
2017-12-21T15:10:55.801Z,102859.31
2017-12-21T15:13:23.546Z,102849.42
2017-12-21T15:15:51.226Z,102853.23
2017-12-21T15:18:18.932Z,102858.27
2017-12-21T15:20:46.689Z,102867.30
2017-12-21T15:23:14.401Z,102870.24
2017-12-21T15:25:42.103Z,102876.89
2017-12-21T15:28:09.863Z,102884.72
2017-12-21T15:30:37.571Z,102877.91
2017-12-21T15:33:05.301Z,102877.56
2017-12-21T15:35:32.999Z,102867.68
2017-12-21T15:38:00.719Z,102875.45
2017-12-21T15:40:28.396Z,102876.03
2017-12-21T15:42:56.140Z,102879.68
2017-12-21T15:45:23.763Z,102878.59
2017-12-21T15:47:51.443Z,102875.08
2017-12-21T15:50:19.099Z,102878.66
2017-12-21T15:52:46.768Z,102875.72
2017-12-21T15:55:14.397Z,102878.41
2017-12-21T15:57:42.078Z,102873.87
2017-12-21T16:00:09.735Z,102878.66
2017-12-21T16:02:37.397Z,102878.62
2017-12-21T16:05:06.114Z,102867.37
2017-12-21T16:07:33.800Z,102872.80
2017-12-21T16:10:01.445Z,102867.48
2017-12-21T16:12:29.141Z,102866.34
2017-12-21T16:14:56.984Z,102861.78
2017-12-21T16:17:24.672Z,102860.26
2017-12-21T16:19:52.294Z,102873.23
2017-12-21T16:22:20.027Z,102864.02
2017-12-21T16:24:47.656Z,102876.06
2017-12-21T16:27:15.317Z,102889.19
2017-12-21T16:29:42.947Z,102896.73
2017-12-21T16:32:10.609Z,102887.41
2017-12-21T16:34:38.252Z,102879.90
2017-12-21T16:37:06.000Z,102880.86
2017-12-21T16:39:33.712Z,102879.44
2017-12-21T16:42:01.463Z,102882.98
2017-12-21T16:44:29.164Z,102885.82
2017-12-21T16:46:56.840Z,102886.24
2017-12-21T16:49:24.497Z,102870.33
2017-12-21T16:51:53.227Z,102882.81
2017-12-21T16:54:22.746Z,102887.13
2017-12-21T16:56:50.574Z,102886.53
2017-12-21T16:59:18.245Z,102895.53
2017-12-21T17:01:45.912Z,102906.77
2017-12-21T17:04:13.555Z,102899.42
2017-12-21T17:06:41.205Z,102892.13
2017-12-21T17:09:08.893Z,102876.18
2017-12-21T17:11:36.532Z,102874.73
2017-12-21T17:14:04.210Z,102886.14
2017-12-21T17:16:31.876Z,102872.24
2017-12-21T17:18:59.656Z,102854.20
2017-12-21T17:21:27.357Z,102862.32
2017-12-21T17:23:55.015Z,102850.09
2017-12-21T17:26:22.783Z,102846.13
2017-12-21T17:28:50.620Z,102844.25
2017-12-21T17:31:18.334Z,102854.73
2017-12-21T17:33:46.054Z,102857.09
2017-12-21T17:36:13.751Z,102861.72
2017-12-21T17:38:41.422Z,102868.92
2017-12-21T17:41:09.055Z,102860.09
2017-12-21T17:43:36.791Z,102868.83
2017-12-21T17:46:04.465Z,102879.03
2017-12-21T17:48:32.144Z,102887.52
2017-12-21T17:50:59.851Z,102882.37
2017-12-21T17:53:27.590Z,102889.44
2017-12-21T17:55:55.240Z,102899.55
2017-12-21T17:58:22.920Z,102890.22
2017-12-21T18:00:50.674Z,102884.52
2017-12-21T18:03:18.396Z,102887.61
2017-12-21T18:05:46.115Z,102892.41
2017-12-21T18:08:13.895Z,102888.05
2017-12-21T18:10:41.627Z,102885.61
2017-12-21T18:13:09.413Z,102894.08
2017-12-21T18:15:37.124Z,102902.72
2017-12-21T18:18:04.906Z,102909.81
2017-12-21T18:20:32.570Z,102909.70
2017-12-21T18:23:00.258Z,102905.27
2017-12-21T18:25:28.009Z,102906.43
2017-12-21T18:27:55.741Z,102911.96
2017-12-21T18:30:23.503Z,102920.50
2017-12-21T18:32:51.249Z,102933.23
2017-12-21T18:35:19.001Z,102938.20
2017-12-21T18:37:46.745Z,102936.35
2017-12-21T18:40:14.475Z,102929.89
2017-12-21T18:42:42.223Z,102926.73
2017-12-21T18:45:09.954Z,102908.14
2017-12-21T18:47:37.652Z,102917.64
2017-12-21T18:50:05.379Z,102920.34
2017-12-21T18:52:33.111Z,102921.97
2017-12-21T18:55:00.839Z,102931.59
2017-12-21T18:57:28.481Z,102938.98
2017-12-21T18:59:56.261Z,102934.65
2017-12-21T19:02:23.900Z,102933.80
2017-12-21T19:04:51.640Z,102917.45
2017-12-21T19:07:19.336Z,102917.38
2017-12-21T19:09:47.032Z,102915.39
2017-12-21T19:12:14.721Z,102921.17
2017-12-21T19:14:42.435Z,102924.05
2017-12-21T19:17:10.073Z,102932.48
2017-12-21T19:19:38.943Z,102929.16
2017-12-21T19:22:06.690Z,102927.66
2017-12-21T19:24:34.378Z,102917.45
2017-12-21T19:27:02.428Z,102917.87
2017-12-21T19:29:30.130Z,102908.26
2017-12-21T19:32:14.318Z,102901.13
2017-12-21T19:34:42.077Z,102904.05
2017-12-21T19:37:09.764Z,102909.44
2017-12-21T19:39:37.482Z,102898.58
2017-12-21T19:42:05.210Z,102904.11
2017-12-21T19:44:32.878Z,102899.53
2017-12-21T19:47:00.542Z,102909.92
2017-12-21T19:49:28.279Z,102906.31
2017-12-21T19:51:55.918Z,102915.39
2017-12-21T19:54:23.597Z,102909.50
2017-12-21T19:56:51.260Z,102904.81
2017-12-21T19:59:19.094Z,102915.88
2017-12-21T20:01:46.790Z,102907.97
2017-12-21T20:04:14.568Z,102904.77
2017-12-21T20:06:42.316Z,102913.67
2017-12-21T20:09:10.128Z,102915.70
2017-12-21T20:11:37.899Z,102912.23
2017-12-21T20:14:05.689Z,102913.97
2017-12-21T20:16:33.364Z,102911.52
2017-12-21T20:19:01.159Z,102913.29
2017-12-21T20:21:28.920Z,102910.13
2017-12-21T20:23:56.662Z,102910.31
2017-12-21T20:26:24.504Z,102914.56
2017-12-21T20:28:52.187Z,102915.70
2017-12-21T20:31:19.859Z,102908.92
2017-12-21T20:33:47.541Z,102904.95
2017-12-21T20:36:15.159Z,102903.73
2017-12-21T20:38:42.850Z,102902.61
2017-12-21T20:41:10.585Z,102910.17
2017-12-21T20:43:38.237Z,102911.16
2017-12-21T20:46:06.156Z,102917.09
2017-12-21T20:48:33.792Z,102914.74
2017-12-21T20:51:01.532Z,102919.85
2017-12-21T20:53:29.218Z,102921.30
2017-12-21T20:55:56.964Z,102916.76
2017-12-21T20:58:35.161Z,102915.13
2017-12-21T21:01:20.340Z,102923.17
2017-12-21T21:03:49.123Z,102918.13
2017-12-21T21:06:26.749Z,102916.75
2017-12-21T21:08:54.959Z,102921.86
2017-12-21T21:11:22.684Z,102916.58
2017-12-21T21:13:50.375Z,102912.38
2017-12-21T21:16:18.146Z,102915.01
2017-12-21T21:18:45.905Z,102908.58
2017-12-21T21:21:13.668Z,102909.96
2017-12-21T21:23:41.461Z,102890.38
2017-12-21T21:26:09.268Z,102895.77
2017-12-21T21:28:37.137Z,102905.98
2017-12-21T21:31:04.829Z,102912.44
2017-12-21T21:33:32.539Z,102905.41
2017-12-21T21:36:00.415Z,102915.09
2017-12-21T21:38:28.168Z,102915.20
2017-12-21T21:40:55.907Z,102917.86
2017-12-21T21:43:23.596Z,102904.87
2017-12-21T21:45:51.408Z,102914.92
2017-12-21T21:48:19.110Z,102911.73
2017-12-21T21:50:46.843Z,102916.23
2017-12-21T21:53:14.507Z,102915.03
2017-12-21T21:55:42.267Z,102923.44
2017-12-21T21:58:10.024Z,102923.33
2017-12-21T22:00:37.767Z,102927.48
2017-12-21T22:03:05.487Z,102926.63
2017-12-21T22:05:33.287Z,102927.06
2017-12-21T22:08:00.965Z,102923.33
2017-12-21T22:10:28.788Z,102916.52
2017-12-21T22:12:56.465Z,102921.20
2017-12-21T22:15:24.205Z,102926.34
2017-12-21T22:17:51.949Z,102919.71
2017-12-21T22:20:19.684Z,102917.02
2017-12-21T22:22:47.427Z,102910.27
2017-12-21T22:25:15.156Z,102916.76
2017-12-21T22:27:42.834Z,102911.48
2017-12-21T22:30:10.555Z,102919.89
2017-12-21T22:32:38.297Z,102916.84
2017-12-21T22:35:06.038Z,102914.78
2017-12-21T22:37:33.763Z,102911.11
2017-12-21T22:40:01.493Z,102920.20
2017-12-21T22:42:29.159Z,102930.42
2017-12-21T22:44:56.925Z,102930.53
2017-12-21T22:47:24.607Z,102926.38
2017-12-21T22:49:52.338Z,102919.61
2017-12-21T22:52:20.078Z,102924.40
2017-12-21T22:54:47.706Z,102924.29
2017-12-21T22:57:15.429Z,102912.20
2017-12-21T22:59:43.095Z,102916.88
2017-12-21T23:02:10.812Z,102911.66
2017-12-21T23:04:38.480Z,102912.73
2017-12-21T23:07:06.209Z,102914.86
2017-12-21T23:09:34.763Z,102906.23
2017-12-21T23:12:02.475Z,102901.72
2017-12-21T23:14:30.143Z,102893.67
2017-12-21T23:16:57.865Z,102891.93
2017-12-21T23:19:25.567Z,102892.57
2017-12-21T23:21:53.301Z,102893.67
2017-12-21T23:24:20.992Z,102890.91
2017-12-21T23:26:48.697Z,102887.54
2017-12-21T23:29:16.323Z,102882.28
2017-12-21T23:31:44.064Z,102880.80
2017-12-21T23:34:11.720Z,102873.56
2017-12-21T23:36:39.405Z,102868.34
2017-12-21T23:39:07.087Z,102868.34
2017-12-21T23:41:34.745Z,102876.64
2017-12-21T23:44:02.448Z,102876.47
2017-12-21T23:46:30.067Z,102869.23
2017-12-21T23:48:57.772Z,102874.77
2017-12-21T23:51:25.439Z,102875.62
2017-12-21T23:53:53.127Z,102877.97
2017-12-21T23:56:20.876Z,102878.81
2017-12-21T23:58:48.552Z,102885.30
